Weinert, Texas
Current Conditions -  °F | °C
As of 5:15 PM on Wednesday 17 Dec 2014 (Local Time) from KBKD Reporting Station
Overcast Overcast  
Wind Chill: 43°   Ceiling: 2200
Heat Index: 47°   Visibility: 10mi
Dew Point: 41°   Wind: 8mph
Humidity: 79%   Direction: 110°ESE
Pressure: 30.05"   Gusts: NA
Location:  33.32°N, 99.67°W
Report Text: KBKD 172315Z AUTO 11007KT 10SM OVC022 09/05 A3005 RMK AO2 T00850050
Loading
Personal Weather Stations






























Interactive Weather Map New forecast layout! Learn more

10-Day Weather Forecast

Advertisements
Track Severe Weather on mobile